Time;durP1;ratioP1;P1;durP2;ratioP2;P2;SDS_P1;SDS_P2;PMS_P1;PMS_P2;Temp;Humidity;BMP_temperature;BMP_pressure;BME280_temperature;BME280_humidity;BME280_pressure;Samples;Min_cycle;Max_cycle;Signal;HPM_P1;HPM_P2
2023/04/09 00:01:46;;;;;;;120.90;30.30;;;6.00;99.90;;;;;;4996968;28;20527;-84
2023/04/09 00:04:12;;;;;;;151.83;29.87;;;6.00;99.90;;;;;;4996424;28;20179;-85
2023/04/09 00:06:37;;;;;;;101.63;27.30;;;5.90;99.90;;;;;;5014182;28;20485;-85
2023/04/09 00:09:03;;;;;;;99.00;27.43;;;5.90;99.90;;;;;;5014308;28;20234;-85
2023/04/09 00:11:29;;;;;;;136.30;28.67;;;5.90;99.90;;;;;;5013865;28;20253;-85
2023/04/09 00:13:56;;;;;;;104.63;30.10;;;5.90;99.90;;;;;;5013994;28;20159;-84
2023/04/09 00:16:21;;;;;;;96.73;28.27;;;5.90;99.90;;;;;;5014296;28;20513;-84
2023/04/09 00:18:47;;;;;;;137.10;27.60;;;5.90;99.90;;;;;;5013736;28;20167;-85
2023/04/09 00:21:15;;;;;;;119.00;26.77;;;5.90;99.90;;;;;;5012969;28;20182;-85
2023/04/09 00:23:41;;;;;;;73.00;23.90;;;5.90;99.90;;;;;;5012183;28;20167;-84
2023/04/09 00:26:07;;;;;;;63.13;25.07;;;5.90;99.90;;;;;;5014073;28;20175;-84
2023/04/09 00:28:33;;;;;;;98.87;24.23;;;5.80;99.90;;;;;;4996340;28;20603;-84
2023/04/09 00:30:59;;;;;;;88.70;23.27;;;5.80;99.90;;;;;;5013806;28;20269;-83
2023/04/09 00:33:25;;;;;;;97.60;23.13;;;5.80;99.90;;;;;;5013459;28;20175;-85
2023/04/09 00:35:51;;;;;;;80.87;22.77;;;5.80;99.90;;;;;;5013913;28;20180;-84
2023/04/09 00:38:17;;;;;;;85.93;22.63;;;5.80;99.90;;;;;;5013913;28;20184;-84
2023/04/09 00:40:42;;;;;;;86.20;23.20;;;5.80;99.90;;;;;;5013672;28;20175;-85
2023/04/09 00:43:08;;;;;;;88.27;26.60;;;5.80;99.90;;;;;;5013658;28;20184;-84
2023/04/09 00:45:35;;;;;;;43.83;21.70;;;5.80;99.90;;;;;;4996124;28;20183;-84
2023/04/09 00:48:01;;;;;;;89.73;22.40;;;5.80;99.90;;;;;;5013628;28;20178;-85
2023/04/09 00:50:27;;;;;;;64.37;22.00;;;5.70;99.90;;;;;;5013637;28;20205;-85
2023/04/09 00:52:52;;;;;;;147.17;24.50;;;5.70;99.90;;;;;;5013600;28;20266;-85
2023/04/09 00:55:20;;;;;;;46.83;21.57;;;5.70;99.90;;;;;;5013567;28;20621;-84
2023/04/09 00:57:45;;;;;;;36.23;20.80;;;5.70;99.90;;;;;;5013782;28;20314;-85
2023/04/09 01:00:12;;;;;;;71.67;22.07;;;5.70;99.90;;;;;;5013960;28;20694;-85
2023/04/09 01:02:38;;;;;;;66.53;22.20;;;5.60;99.90;;;;;;5013364;28;20195;-85
2023/04/09 01:05:04;;;;;;;77.07;22.37;;;5.60;99.90;;;;;;5013759;28;20167;-85
2023/04/09 01:08:02;;;;;;;99.33;22.30;;;5.60;99.90;;;;;;5012702;28;20191;-85
2023/04/09 01:10:38;;;;;;;58.40;21.30;;;5.60;99.90;;;;;;5011317;28;20234;-84
2023/04/09 01:13:07;;;;;;;109.23;21.20;;;5.60;99.90;;;;;;5013889;28;20167;-85
2023/04/09 01:15:38;;;;;;;135.50;21.83;;;5.60;99.90;;;;;;5013737;28;20167;-85
2023/04/09 01:18:10;;;;;;;41.03;18.87;;;5.60;99.90;;;;;;5013363;28;20175;-85
2023/04/09 01:20:58;;;;;;;64.27;20.53;;;5.60;99.90;;;;;;5012419;28;20210;-85
2023/04/09 01:23:29;;;;;;;78.17;21.00;;;5.60;99.90;;;;;;5549892;22;20238;-86
2023/04/09 01:26:37;;;;;;;109.03;20.40;;;5.60;99.90;;;;;;5035235;28;20195;-85
2023/04/09 01:29:04;;;;;;;48.03;19.20;;;5.60;99.90;;;;;;5034760;28;20765;-84
2023/04/09 01:31:34;;;;;;;79.37;20.03;;;5.60;99.90;;;;;;5034762;28;20212;-85
2023/04/09 01:34:00;;;;;;;46.57;17.53;;;5.60;99.90;;;;;;5052872;28;20216;-85
2023/04/09 01:36:28;;;;;;;82.80;18.77;;;5.60;99.90;;;;;;5036878;28;20177;-84
2023/04/09 01:38:55;;;;;;;60.07;18.93;;;5.50;99.90;;;;;;5056281;28;20505;-84
2023/04/09 01:41:22;;;;;;;146.70;18.50;;;5.50;99.90;;;;;;5056247;28;20694;-85
2023/04/09 01:43:50;;;;;;;44.63;16.90;;;5.50;99.90;;;;;;5022134;28;20228;-86
2023/04/09 01:46:17;;;;;;;60.43;17.43;;;5.50;99.90;;;;;;5056489;28;20181;-85
2023/04/09 01:48:44;;;;;;;70.60;17.43;;;5.40;99.90;;;;;;5056225;28;20174;-85
2023/04/09 01:51:12;;;;;;;26.13;15.57;;;5.40;99.90;;;;;;5056171;28;20212;-85
2023/04/09 01:53:38;;;;;;;124.37;18.30;;;5.50;99.90;;;;;;5038372;28;20507;-85
2023/04/09 01:56:04;;;;;;;39.23;15.40;;;5.50;99.90;;;;;;5056147;28;20186;-85
2023/04/09 01:58:33;;;;;;;90.53;16.17;;;5.50;99.90;;;;;;5056080;28;20496;-85
2023/04/09 02:01:23;;;;;;;43.17;16.53;;;5.40;99.90;;;;;;5056222;28;20178;-85
2023/04/09 02:03:56;;;;;;;27.33;15.53;;;5.30;99.90;;;;;;5056018;28;20201;-85
2023/04/09 02:06:27;;;;;;;121.00;17.37;;;5.20;99.90;;;;;;5038100;28;20523;-85
2023/04/09 02:08:53;;;;;;;79.07;16.73;;;5.10;99.90;;;;;;5055865;28;20227;-85
2023/04/09 02:11:22;;;;;;;47.00;16.70;;;5.00;99.90;;;;;;5037627;28;20218;-84
2023/04/09 02:13:51;;;;;;;121.33;18.10;;;5.00;99.90;;;;;;5055948;28;20256;-85
2023/04/09 02:16:18;;;;;;;65.77;17.37;;;5.00;99.90;;;;;;5055857;28;20202;-85
2023/04/09 02:18:43;;;;;;;47.10;16.47;;;5.00;99.90;;;;;;5055681;28;20166;-85
2023/04/09 02:21:10;;;;;;;164.63;18.60;;;4.90;99.90;;;;;;5037740;28;20240;-85
2023/04/09 02:23:35;;;;;;;35.50;16.47;;;4.90;99.90;;;;;;5054833;28;20217;-85
2023/04/09 02:26:01;;;;;;;80.20;17.83;;;4.90;99.90;;;;;;5055584;28;20182;-85
2023/04/09 02:28:27;;;;;;;37.77;15.47;;;4.80;99.90;;;;;;5055557;28;20223;-85
2023/04/09 02:30:53;;;;;;;72.60;16.80;;;4.80;99.90;;;;;;5055362;28;20216;-85
2023/04/09 02:33:18;;;;;;;126.10;16.77;;;4.70;99.90;;;;;;5055387;28;20178;-85
2023/04/09 02:35:44;;;;;;;149.63;16.57;;;4.70;99.90;;;;;;5055355;28;20174;-85
2023/04/09 02:38:12;;;;;;;66.87;14.57;;;4.60;99.90;;;;;;5055535;28;20294;-85
2023/04/09 02:40:40;;;;;;;86.00;14.97;;;4.60;99.90;;;;;;5055415;28;20177;-85
2023/04/09 02:43:06;;;;;;;39.43;14.57;;;4.60;99.90;;;;;;5055293;28;20189;-85
2023/04/09 02:45:32;;;;;;;106.03;15.07;;;4.60;99.90;;;;;;5037449;28;20268;-85
2023/04/09 02:47:57;;;;;;;101.67;15.23;;;4.50;99.90;;;;;;5054949;28;20709;-84
2023/04/09 02:50:23;;;;;;;93.10;15.93;;;4.50;99.90;;;;;;5055037;28;20209;-85
2023/04/09 02:52:49;;;;;;;134.43;19.27;;;4.40;99.90;;;;;;5054972;28;20248;-85
2023/04/09 02:55:15;;;;;;;47.37;16.47;;;4.40;99.90;;;;;;5055132;28;20170;-86
2023/04/09 02:57:41;;;;;;;39.03;15.17;;;4.40;99.90;;;;;;5055238;28;20561;-84
2023/04/09 03:00:07;;;;;;;57.30;16.33;;;4.40;99.90;;;;;;5054941;28;20260;-85
2023/04/09 03:02:33;;;;;;;62.93;15.90;;;4.40;99.90;;;;;;5036903;28;20184;-85
2023/04/09 03:04:59;;;;;;;116.37;15.87;;;4.50;99.90;;;;;;5054815;28;20260;-85
2023/04/09 03:07:24;;;;;;;74.03;15.93;;;4.50;99.90;;;;;;5054815;28;20162;-85
2023/04/09 03:09:50;;;;;;;115.27;16.40;;;4.50;99.90;;;;;;5054866;28;20192;-85
2023/04/09 03:12:16;;;;;;;83.23;15.87;;;4.60;99.90;;;;;;5054697;28;20178;-84
2023/04/09 03:14:41;;;;;;;49.87;16.33;;;4.50;99.90;;;;;;5054672;28;20177;-84
2023/04/09 03:17:07;;;;;;;42.13;14.83;;;4.50;99.90;;;;;;5054617;28;20262;-85
2023/04/09 03:19:33;;;;;;;62.50;14.70;;;4.50;99.90;;;;;;5054468;28;20173;-85
2023/04/09 03:21:59;;;;;;;86.70;14.93;;;4.50;99.90;;;;;;5054409;28;20612;-85
2023/04/09 03:24:24;;;;;;;56.60;14.40;;;4.50;99.90;;;;;;5054374;28;20298;-85
2023/04/09 03:26:50;;;;;;;104.27;15.13;;;4.50;99.90;;;;;;5054461;28;20174;-85
2023/04/09 03:29:16;;;;;;;57.93;15.20;;;4.50;99.90;;;;;;5054306;28;20259;-85
2023/04/09 03:31:41;;;;;;;67.40;14.23;;;4.50;99.90;;;;;;5054197;28;20213;-84
2023/04/09 03:34:07;;;;;;;40.30;14.77;;;4.50;99.90;;;;;;5054311;28;20177;-85
2023/04/09 03:36:33;;;;;;;49.30;15.00;;;4.50;99.90;;;;;;5054230;28;20332;-85
2023/04/09 03:38:59;;;;;;;43.97;16.07;;;4.50;99.90;;;;;;5054351;28;20166;-85
2023/04/09 03:41:25;;;;;;;41.10;15.50;;;4.50;99.90;;;;;;5054206;28;20170;-85
2023/04/09 03:43:51;;;;;;;58.97;16.03;;;4.50;99.90;;;;;;5054151;28;20182;-85
2023/04/09 03:46:17;;;;;;;83.37;16.57;;;4.40;99.90;;;;;;5053991;28;20173;-84
2023/04/09 03:48:43;;;;;;;75.33;16.40;;;4.50;99.90;;;;;;5053981;28;20174;-85
2023/04/09 03:51:16;;;;;;;39.87;15.93;;;4.50;99.90;;;;;;5053908;28;20528;-85
2023/04/09 03:53:42;;;;;;;37.40;15.63;;;4.50;99.90;;;;;;5054051;28;20247;-85
2023/04/09 03:56:09;;;;;;;37.00;16.53;;;4.50;99.90;;;;;;5053974;28;20257;-85
2023/04/09 03:58:34;;;;;;;49.90;17.00;;;4.60;99.90;;;;;;5035457;28;20569;-84
2023/04/09 04:01:00;;;;;;;41.83;15.53;;;4.60;99.90;;;;;;5053856;28;20261;-85
2023/04/09 04:03:26;;;;;;;24.70;14.97;;;4.60;99.90;;;;;;5053847;28;20174;-85
2023/04/09 04:05:52;;;;;;;33.33;14.70;;;4.60;99.90;;;;;;5053813;28;20193;-85
2023/04/09 04:08:18;;;;;;;26.27;14.63;;;4.60;99.90;;;;;;5053828;28;20224;-85
2023/04/09 04:10:44;;;;;;;27.77;15.63;;;4.60;99.90;;;;;;5053657;28;20225;-85
2023/04/09 04:13:09;;;;;;;21.73;14.37;;;4.60;99.90;;;;;;5053613;28;20239;-85
2023/04/09 04:15:40;;;;;;;25.37;15.30;;;4.60;99.90;;;;;;5053634;28;20257;-86
2023/04/09 04:18:06;;;;;;;25.53;15.43;;;4.70;99.90;;;;;;5054038;28;20683;-85
2023/04/09 04:20:35;;;;;;;29.10;14.73;;;4.70;99.90;;;;;;5053611;28;20606;-85
2023/04/09 04:23:02;;;;;;;29.87;15.10;;;4.70;99.90;;;;;;5053366;28;20173;-84
2023/04/09 04:25:27;;;;;;;22.33;14.67;;;4.70;99.90;;;;;;5035944;28;20521;-85
2023/04/09 04:27:53;;;;;;;22.67;14.67;;;4.70;99.90;;;;;;5053611;28;20174;-85
2023/04/09 04:30:20;;;;;;;23.40;15.40;;;4.70;99.90;;;;;;5035706;28;20706;-84
2023/04/09 04:32:46;;;;;;;23.73;14.87;;;4.80;99.90;;;;;;5053541;28;20212;-84
2023/04/09 04:35:12;;;;;;;26.57;15.53;;;4.80;99.90;;;;;;5053522;28;20173;-84
2023/04/09 04:37:39;;;;;;;23.80;14.53;;;4.80;99.90;;;;;;5053591;28;20247;-86
2023/04/09 04:40:06;;;;;;;21.50;13.80;;;4.80;99.90;;;;;;5053748;28;20189;-85
2023/04/09 04:42:32;;;;;;;23.53;14.60;;;4.80;99.90;;;;;;5053311;28;20200;-85
2023/04/09 04:44:58;;;;;;;26.33;15.07;;;4.80;99.90;;;;;;5053417;28;20608;-84
2023/04/09 04:47:23;;;;;;;23.87;14.80;;;4.80;99.90;;;;;;5035509;28;20202;-85
2023/04/09 04:49:49;;;;;;;25.33;15.03;;;4.80;99.90;;;;;;5035554;28;20269;-85
2023/04/09 04:52:15;;;;;;;27.60;15.27;;;4.80;99.90;;;;;;5053443;28;20600;-85
2023/04/09 04:54:40;;;;;;;25.33;13.83;;;4.80;99.90;;;;;;5053376;28;20193;-86
2023/04/09 04:57:06;;;;;;;24.60;14.70;;;4.80;99.90;;;;;;5053307;28;20189;-85
2023/04/09 04:59:32;;;;;;;25.53;15.37;;;4.80;99.90;;;;;;5035455;28;20206;-85
2023/04/09 05:01:57;;;;;;;22.10;14.53;;;4.80;99.90;;;;;;5053166;28;20625;-85
2023/04/09 05:04:23;;;;;;;26.10;15.50;;;4.90;99.90;;;;;;5035369;28;20221;-85
2023/04/09 05:06:49;;;;;;;28.73;17.07;;;4.90;99.90;;;;;;5053216;28;20182;-85
2023/04/09 05:09:15;;;;;;;27.07;16.93;;;4.90;99.90;;;;;;5053093;28;20170;-85
2023/04/09 05:11:40;;;;;;;24.73;15.77;;;5.00;99.90;;;;;;5038762;28;20335;-85
2023/04/09 05:14:06;;;;;;;30.20;17.47;;;5.00;99.90;;;;;;5057090;28;20178;-84
2023/04/09 05:16:32;;;;;;;31.07;18.50;;;5.00;99.90;;;;;;5039067;28;20181;-85
2023/04/09 05:18:58;;;;;;;28.87;18.30;;;5.10;99.90;;;;;;5039005;28;20174;-86
2023/04/09 05:21:23;;;;;;;29.17;17.83;;;5.10;99.90;;;;;;5057116;28;20373;-86
2023/04/09 05:23:49;;;;;;;29.43;17.90;;;5.10;99.90;;;;;;5056705;28;20663;-85
2023/04/09 05:26:15;;;;;;;29.77;17.77;;;5.20;99.90;;;;;;5038932;28;20182;-85
2023/04/09 05:28:41;;;;;;;33.57;18.47;;;5.20;99.90;;;;;;5057083;28;20177;-85
2023/04/09 05:31:11;;;;;;;34.90;19.20;;;5.30;99.90;;;;;;5056646;28;20210;-84
2023/04/09 05:33:38;;;;;;;30.23;18.73;;;5.40;99.90;;;;;;5056607;28;20241;-85
2023/04/09 05:36:04;;;;;;;30.53;18.37;;;5.40;99.90;;;;;;5038684;28;20320;-84
2023/04/09 05:38:30;;;;;;;34.13;18.70;;;5.40;99.90;;;;;;5056560;28;20161;-85
2023/04/09 05:40:56;;;;;;;33.60;19.10;;;5.50;99.90;;;;;;5056154;28;20182;-86
2023/04/09 05:43:22;;;;;;;34.60;17.63;;;5.50;99.90;;;;;;5056348;28;20178;-85
2023/04/09 05:45:47;;;;;;;31.70;17.27;;;5.50;99.90;;;;;;5056220;28;20201;-85
2023/04/09 05:48:13;;;;;;;33.63;19.40;;;5.50;99.90;;;;;;5056281;28;20610;-86
2023/04/09 05:50:38;;;;;;;32.73;18.47;;;5.50;99.90;;;;;;5056241;28;20202;-85
2023/04/09 05:53:04;;;;;;;34.20;18.43;;;5.50;99.90;;;;;;5056132;28;20292;-86
2023/04/09 05:55:31;;;;;;;33.80;19.23;;;5.60;99.90;;;;;;5056039;28;20185;-85
2023/04/09 05:57:57;;;;;;;31.70;18.13;;;5.60;99.90;;;;;;5056076;28;20612;-86
2023/04/09 06:00:23;;;;;;;33.40;18.97;;;5.60;99.90;;;;;;5055936;28;20166;-85
2023/04/09 06:02:49;;;;;;;34.33;18.50;;;5.60;99.90;;;;;;5038179;28;20296;-85
2023/04/09 06:05:14;;;;;;;35.87;18.70;;;5.60;99.90;;;;;;5056089;28;20227;-86
2023/04/09 06:07:40;;;;;;;33.60;18.73;;;5.60;99.90;;;;;;5055918;28;20178;-86
2023/04/09 06:10:07;;;;;;;36.37;18.90;;;5.70;99.90;;;;;;5055657;28;20201;-84
2023/04/09 06:12:35;;;;;;;34.03;18.03;;;5.70;99.90;;;;;;5055670;28;20227;-85
2023/04/09 06:15:02;;;;;;;30.60;17.90;;;5.70;99.90;;;;;;5037885;28;20583;-84
2023/04/09 06:17:28;;;;;;;34.53;20.03;;;5.70;99.90;;;;;;5055828;28;20178;-86
2023/04/09 06:19:54;;;;;;;41.67;20.03;;;5.80;99.90;;;;;;5055711;28;20158;-86
2023/04/09 06:22:20;;;;;;;35.20;19.63;;;5.80;99.90;;;;;;5037203;28;20178;-86
2023/04/09 06:24:45;;;;;;;34.73;18.97;;;5.80;99.90;;;;;;5055258;28;20230;-85
2023/04/09 06:27:11;;;;;;;36.10;19.20;;;5.70;99.90;;;;;;5055695;28;20185;-85
2023/04/09 06:29:37;;;;;;;35.27;19.50;;;5.80;99.90;;;;;;5055269;28;20166;-86
2023/04/09 06:32:03;;;;;;;36.30;19.60;;;5.80;99.90;;;;;;5055323;28;20209;-86
2023/04/09 06:34:28;;;;;;;34.53;19.87;;;5.80;99.90;;;;;;5055495;28;20185;-85
2023/04/09 06:36:54;;;;;;;35.17;19.07;;;5.90;99.90;;;;;;5037657;28;20182;-85
2023/04/09 06:39:20;;;;;;;35.00;18.90;;;5.90;99.90;;;;;;5055257;28;20173;-86
2023/04/09 06:41:46;;;;;;;35.80;18.97;;;5.90;99.90;;;;;;5021048;28;20181;-84
2023/04/09 06:44:12;;;;;;;33.53;18.50;;;5.90;99.90;;;;;;5055243;28;20636;-86
2023/04/09 06:46:38;;;;;;;34.60;18.40;;;5.90;99.90;;;;;;5055215;28;20180;-85
2023/04/09 06:49:04;;;;;;;38.67;20.03;;;5.90;99.90;;;;;;5055201;28;20697;-86
2023/04/09 06:51:30;;;;;;;38.27;21.40;;;5.90;99.90;;;;;;5054896;28;20205;-86
2023/04/09 06:53:56;;;;;;;39.50;21.23;;;5.90;99.90;;;;;;5037140;28;20178;-85
2023/04/09 06:56:22;;;;;;;36.87;21.07;;;6.00;99.90;;;;;;5054958;28;20182;-84
2023/04/09 06:58:48;;;;;;;36.77;19.57;;;6.00;99.90;;;;;;5054863;28;20515;-86
2023/04/09 07:01:13;;;;;;;38.73;19.40;;;6.00;99.90;;;;;;5054940;28;20190;-85
2023/04/09 07:03:39;;;;;;;32.33;18.20;;;6.00;99.90;;;;;;5054857;28;20209;-85
2023/04/09 07:06:05;;;;;;;35.00;18.93;;;6.00;99.90;;;;;;5054869;28;20219;-86
2023/04/09 07:08:31;;;;;;;38.03;19.40;;;6.00;99.90;;;;;;5054785;28;20178;-85
2023/04/09 07:10:56;;;;;;;35.83;19.73;;;6.00;99.90;;;;;;5036762;28;20242;-86
2023/04/09 07:13:22;;;;;;;39.33;19.90;;;6.10;99.90;;;;;;5036892;28;20185;-86
2023/04/09 07:15:47;;;;;;;34.57;19.73;;;6.10;99.90;;;;;;5036855;28;20212;-86
2023/04/09 07:18:13;;;;;;;35.17;20.17;;;6.10;99.90;;;;;;5054710;28;20174;-86
2023/04/09 07:20:39;;;;;;;35.53;20.80;;;6.10;99.90;;;;;;5054493;28;20601;-85
2023/04/09 07:23:05;;;;;;;36.03;20.43;;;6.10;99.90;;;;;;5036509;28;20217;-86
2023/04/09 07:25:31;;;;;;;32.83;19.70;;;6.10;99.90;;;;;;5036468;28;20189;-85
2023/04/09 07:27:57;;;;;;;41.03;20.03;;;6.10;99.90;;;;;;5054358;28;20510;-85
2023/04/09 07:30:22;;;;;;;42.30;21.37;;;6.20;99.90;;;;;;5054294;28;20201;-85
2023/04/09 07:32:48;;;;;;;39.50;20.27;;;6.20;99.90;;;;;;5054110;28;20193;-85
2023/04/09 07:35:14;;;;;;;35.87;20.53;;;6.20;99.90;;;;;;5053702;28;20170;-85
2023/04/09 07:37:40;;;;;;;38.90;20.53;;;6.20;99.90;;;;;;5036260;28;20525;-86
2023/04/09 07:40:07;;;;;;;39.50;20.80;;;6.30;99.90;;;;;;5054144;28;20193;-84
2023/04/09 07:42:32;;;;;;;35.10;20.17;;;6.30;99.90;;;;;;5036101;28;20177;-85
2023/04/09 07:44:58;;;;;;;34.53;19.77;;;6.30;99.90;;;;;;5054170;28;20181;-85
2023/04/09 07:47:24;;;;;;;38.60;20.33;;;6.30;99.90;;;;;;5036416;28;20620;-86
2023/04/09 07:49:50;;;;;;;40.00;20.30;;;6.30;99.90;;;;;;5054064;28;20165;-85
2023/04/09 07:52:15;;;;;;;35.97;20.10;;;6.30;99.90;;;;;;5053786;28;20213;-87
2023/04/09 07:54:41;;;;;;;36.73;20.23;;;6.40;99.90;;;;;;5053968;28;20223;-85
2023/04/09 07:57:07;;;;;;;37.63;20.50;;;6.30;99.90;;;;;;5053901;28;20170;-85
2023/04/09 07:59:33;;;;;;;35.43;20.00;;;6.40;99.90;;;;;;5054014;28;20170;-85
2023/04/09 08:01:59;;;;;;;36.57;20.77;;;6.40;99.90;;;;;;5036120;28;20227;-86
2023/04/09 08:04:25;;;;;;;42.77;21.43;;;6.40;99.90;;;;;;5035895;28;20178;-85
2023/04/09 08:06:52;;;;;;;39.07;21.90;;;6.40;99.90;;;;;;5035882;28;20182;-85
2023/04/09 08:09:18;;;;;;;35.87;20.40;;;6.40;99.90;;;;;;5053617;28;20181;-85
2023/04/09 08:11:45;;;;;;;39.03;21.83;;;6.40;99.90;;;;;;5053526;28;20274;-84
2023/04/09 08:14:14;;;;;;;35.90;20.87;;;6.50;99.90;;;;;;5053686;28;20174;-85
2023/04/09 08:16:44;;;;;;;39.90;21.70;;;6.50;99.90;;;;;;5035775;28;20189;-85
2023/04/09 08:19:10;;;;;;;36.73;21.00;;;6.50;99.90;;;;;;5053439;28;20256;-85
2023/04/09 08:21:43;;;;;;;36.43;20.83;;;6.50;99.90;;;;;;5053451;28;20165;-84
2023/04/09 08:24:10;;;;;;;36.20;20.87;;;6.50;99.90;;;;;;5052837;28;20232;-84
2023/04/09 08:26:37;;;;;;;35.63;20.57;;;6.60;99.90;;;;;;5053619;28;20237;-86
2023/04/09 08:29:03;;;;;;;41.40;22.17;;;6.60;99.90;;;;;;5053432;28;20188;-84
2023/04/09 08:31:29;;;;;;;37.00;21.87;;;6.60;99.90;;;;;;5035609;28;20216;-85
2023/04/09 08:33:55;;;;;;;38.53;20.17;;;6.60;99.90;;;;;;5053443;28;20170;-85
2023/04/09 08:36:21;;;;;;;39.03;20.57;;;6.60;99.90;;;;;;5053460;28;20209;-85
2023/04/09 08:38:47;;;;;;;34.53;20.90;;;6.70;99.90;;;;;;5053442;28;20649;-84
2023/04/09 08:41:24;;;;;;;34.50;19.97;;;6.70;99.90;;;;;;5053704;28;20184;-85
2023/04/09 08:43:51;;;;;;;34.47;20.87;;;6.70;99.90;;;;;;5053484;28;20166;-85
2023/04/09 08:46:18;;;;;;;34.47;20.90;;;6.70;99.90;;;;;;5056605;28;20666;-85
2023/04/09 08:48:45;;;;;;;38.00;20.80;;;6.70;99.90;;;;;;5039581;28;20190;-85
2023/04/09 08:51:19;;;;;;;35.07;19.60;;;6.70;99.90;;;;;;5057302;28;20271;-84
2023/04/09 08:53:46;;;;;;;38.97;22.40;;;6.80;99.90;;;;;;5057433;28;20244;-86
2023/04/09 08:56:14;;;;;;;50.30;25.30;;;6.80;99.90;;;;;;5057386;28;20228;-85
2023/04/09 08:58:44;;;;;;;46.43;25.37;;;6.70;99.90;;;;;;5057509;28;20182;-85
2023/04/09 09:01:24;;;;;;;44.50;22.17;;;6.80;99.90;;;;;;5039453;28;20169;-85
2023/04/09 09:04:02;;;;;;;37.73;21.00;;;6.80;99.90;;;;;;5057149;28;20177;-85
2023/04/09 09:06:31;;;;;;;40.77;21.37;;;6.80;99.90;;;;;;5057303;28;20252;-85
2023/04/09 09:09:14;;;;;;;41.97;21.13;;;6.90;99.90;;;;;;5057329;28;20182;-85
2023/04/09 09:11:49;;;;;;;38.47;21.20;;;6.90;99.90;;;;;;5039011;28;20205;-86
2023/04/09 09:14:19;;;;;;;36.20;20.27;;;6.90;99.90;;;;;;5039157;28;20219;-85
2023/04/09 09:16:56;;;;;;;34.80;19.83;;;7.00;99.90;;;;;;5057074;28;20174;-86
2023/04/09 09:19:25;;;;;;;36.33;21.30;;;7.10;99.90;;;;;;5038882;28;20189;-84
2023/04/09 09:21:56;;;;;;;35.97;19.97;;;7.10;99.90;;;;;;5056849;28;20504;-86
2023/04/09 09:24:22;;;;;;;35.60;20.93;;;7.10;99.90;;;;;;5056580;28;20222;-85
2023/04/09 09:26:47;;;;;;;39.23;21.00;;;7.20;99.90;;;;;;5038856;28;20269;-85
2023/04/09 09:29:13;;;;;;;36.73;21.33;;;7.20;99.90;;;;;;5056628;28;20174;-85
2023/04/09 09:31:53;;;;;;;36.83;21.17;;;7.20;99.90;;;;;;5056624;28;20252;-85
2023/04/09 09:34:22;;;;;;;33.23;20.23;;;7.30;99.90;;;;;;5056782;28;20158;-85
2023/04/09 09:36:48;;;;;;;35.20;19.77;;;7.40;99.90;;;;;;5056423;28;20174;-85
2023/04/09 09:39:16;;;;;;;31.13;19.07;;;7.40;99.90;;;;;;5056603;28;20220;-84
2023/04/09 09:41:42;;;;;;;33.23;20.37;;;7.50;99.90;;;;;;5038569;28;20170;-84
2023/04/09 09:44:10;;;;;;;34.03;20.33;;;7.50;99.90;;;;;;5056531;28;20166;-84
2023/04/09 09:46:38;;;;;;;33.87;20.10;;;7.60;99.90;;;;;;5056326;28;20647;-85
2023/04/09 09:49:07;;;;;;;33.83;20.20;;;7.60;99.90;;;;;;5056507;28;20178;-84
2023/04/09 09:51:36;;;;;;;32.17;19.63;;;7.70;99.90;;;;;;5056080;28;20682;-85
2023/04/09 09:54:02;;;;;;;33.17;19.70;;;7.70;99.90;;;;;;5056374;28;20178;-83
2023/04/09 09:56:34;;;;;;;30.70;18.47;;;7.80;99.90;;;;;;5055127;28;20178;-85
2023/04/09 09:59:11;;;;;;;33.33;20.13;;;7.80;99.90;;;;;;5056239;28;20224;-85
2023/04/09 10:01:37;;;;;;;32.77;19.20;;;8.00;99.90;;;;;;5056075;28;20166;-85
2023/04/09 10:04:05;;;;;;;32.67;19.80;;;8.00;99.90;;;;;;5055998;28;20260;-84
2023/04/09 10:06:33;;;;;;;30.67;19.10;;;8.10;99.90;;;;;;5056043;28;20174;-83
2023/04/09 10:09:03;;;;;;;33.33;20.17;;;8.00;99.90;;;;;;5038368;28;20185;-84
2023/04/09 10:11:31;;;;;;;30.30;19.40;;;8.10;99.90;;;;;;5055801;28;20201;-84
2023/04/09 10:13:58;;;;;;;31.47;19.33;;;8.10;99.90;;;;;;5055885;28;20184;-83
2023/04/09 10:16:25;;;;;;;32.30;19.97;;;8.10;99.90;;;;;;5055886;28;20220;-84
2023/04/09 10:18:52;;;;;;;33.33;19.97;;;8.10;99.90;;;;;;5055817;28;20177;-84
2023/04/09 10:21:46;;;;;;;31.80;20.00;;;8.10;99.90;;;;;;5055795;28;20597;-85
2023/04/09 10:24:12;;;;;;;30.87;18.70;;;8.20;99.90;;;;;;5037505;28;20237;-85
2023/04/09 10:26:45;;;;;;;27.27;18.30;;;8.20;99.90;;;;;;5055648;28;20170;-84
2023/04/09 10:29:13;;;;;;;31.47;19.47;;;8.30;99.90;;;;;;5037644;28;20268;-83
2023/04/09 10:32:05;;;;;;;33.10;20.07;;;8.40;99.90;;;;;;5055495;28;20201;-86
2023/04/09 10:34:40;;;;;;;32.83;20.33;;;8.40;99.90;;;;;;5051615;28;20190;-85
2023/04/09 10:37:08;;;;;;;31.53;18.87;;;8.40;99.90;;;;;;5037636;28;20176;-85
2023/04/09 10:39:44;;;;;;;30.70;18.63;;;8.50;99.90;;;;;;5055358;28;20608;-85
2023/04/09 10:42:41;;;;;;;30.43;19.60;;;8.40;99.90;;;;;;5055496;28;20612;-86
2023/04/09 10:45:10;;;;;;;32.70;19.73;;;8.60;99.90;;;;;;5055379;28;20488;-84
2023/04/09 10:47:37;;;;;;;32.07;20.70;;;8.70;99.90;;;;;;5055183;28;20166;-85
2023/04/09 10:50:22;;;;;;;30.23;19.70;;;8.80;99.90;;;;;;5054963;28;20177;-85
2023/04/09 10:52:52;;;;;;;30.43;18.37;;;9.00;99.90;;;;;;5055105;28;20710;-84
2023/04/09 10:55:39;;;;;;;30.83;20.13;;;9.10;99.90;;;;;;5037406;28;20217;-85
2023/04/09 10:58:09;;;;;;;32.47;19.40;;;9.10;99.90;;;;;;5055303;28;20264;-84
2023/04/09 11:00:46;;;;;;;31.07;20.10;;;9.10;99.90;;;;;;5020733;28;20557;-84
2023/04/09 11:03:20;;;;;;;29.80;19.03;;;9.20;99.90;;;;;;5055166;28;20197;-85
2023/04/09 11:05:51;;;;;;;28.87;20.03;;;9.30;99.90;;;;;;5037028;28;20209;-85
2023/04/09 11:08:17;;;;;;;29.33;19.30;;;9.40;99.90;;;;;;5054784;28;20177;-85
2023/04/09 11:10:44;;;;;;;32.17;20.20;;;9.40;99.90;;;;;;5020259;28;20205;-84
2023/04/09 11:13:14;;;;;;;30.13;18.45;;;9.70;99.90;;;;;;5054628;28;20605;-84
2023/04/09 11:15:42;;;;;;;29.35;18.50;;;10.00;99.90;;;;;;5054877;28;20255;-84
2023/04/09 11:18:12;;;;;;;26.52;17.92;;;10.20;99.90;;;;;;5054843;28;20189;-84
2023/04/09 11:20:39;;;;;;;27.60;19.13;;;10.50;99.90;;;;;;5037466;28;20162;-86
2023/04/09 11:23:05;;;;;;;26.40;18.25;;;10.80;99.90;;;;;;5054189;28;20199;-83
2023/04/09 11:25:32;;;;;;;24.92;17.42;;;10.90;99.90;;;;;;5054706;28;20593;-85
2023/04/09 11:27:58;;;;;;;29.10;19.13;;;10.90;99.90;;;;;;5054511;28;20174;-84
2023/04/09 11:30:25;;;;;;;27.55;17.80;;;11.20;99.90;;;;;;5054259;28;20255;-85
2023/04/09 11:32:50;;;;;;;25.75;17.83;;;11.10;99.90;;;;;;5054211;28;20179;-84
2023/04/09 11:35:21;;;;;;;27.58;18.05;;;11.30;99.90;;;;;;5054307;28;20620;-84
2023/04/09 11:37:48;;;;;;;28.05;17.90;;;11.60;99.90;;;;;;5054142;28;20173;-84
2023/04/09 11:40:16;;;;;;;28.45;18.75;;;11.60;99.90;;;;;;5036208;28;20188;-85
2023/04/09 11:42:43;;;;;;;26.20;18.17;;;11.10;99.90;;;;;;5054277;28;20169;-84
2023/04/09 11:45:10;;;;;;;29.35;19.05;;;10.90;99.90;;;;;;5054100;28;20174;-85
2023/04/09 11:47:37;;;;;;;28.67;19.35;;;11.20;99.90;;;;;;5036330;28;20217;-84
2023/04/09 11:50:08;;;;;;;26.50;18.48;;;11.30;99.90;;;;;;5053762;28;20637;-84
2023/04/09 11:52:34;;;;;;;29.98;18.67;;;11.40;99.90;;;;;;5054161;28;20178;-85
2023/04/09 11:55:07;;;;;;;29.65;19.05;;;11.50;99.90;;;;;;5053936;28;20169;-85
2023/04/09 11:57:41;;;;;;;27.20;18.27;;;11.70;99.90;;;;;;5054006;28;20616;-84
2023/04/09 12:00:12;;;;;;;25.60;17.73;;;11.40;99.90;;;;;;5053735;28;20521;-86
2023/04/09 12:02:50;;;;;;;27.50;18.23;;;11.70;99.90;;;;;;5053793;28;20166;-84
2023/04/09 12:05:24;;;;;;;30.42;19.40;;;11.90;99.90;;;;;;5019650;28;20227;-85
2023/04/09 12:07:50;;;;;;;27.17;17.65;;;12.20;99.90;;;;;;5053788;28;20186;-85
2023/04/09 12:10:16;;;;;;;27.48;18.65;;;12.20;99.90;;;;;;5053490;28;20181;-83
2023/04/09 12:12:43;;;;;;;28.77;18.92;;;12.00;99.90;;;;;;5035743;28;20192;-84
2023/04/09 12:15:19;;;;;;;27.98;18.80;;;12.40;99.90;;;;;;5053734;28;20166;-85
2023/04/09 12:17:50;;;;;;;25.77;17.70;;;12.50;99.90;;;;;;5053708;28;20223;-85
2023/04/09 12:20:30;;;;;;;25.42;17.95;;;12.10;99.90;;;;;;5053004;28;20173;-84
2023/04/09 12:22:57;;;;;;;29.83;19.52;;;12.10;99.90;;;;;;5035310;28;20174;-85
2023/04/09 12:25:22;;;;;;;26.83;18.77;;;12.30;99.90;;;;;;5035825;28;20192;-85
2023/04/09 12:27:48;;;;;;;27.75;18.85;;;12.40;99.90;;;;;;5053378;28;20178;-84
2023/04/09 12:30:14;;;;;;;25.65;18.00;;;12.60;99.90;;;;;;5053334;28;20170;-84
2023/04/09 12:32:41;;;;;;;28.10;19.00;;;12.70;99.90;;;;;;5035620;28;20236;-85
2023/04/09 12:35:07;;;;;;;29.33;19.27;;;12.80;99.90;;;;;;5053539;28;20166;-84
2023/04/09 12:37:33;;;;;;;26.35;18.27;;;12.90;99.90;;;;;;5053441;28;20265;-84
2023/04/09 12:39:59;;;;;;;28.48;19.65;;;13.10;99.90;;;;;;5053479;28;20486;-85